Time;durP1;ratioP1;P1;durP2;ratioP2;P2;SDS_P1;SDS_P2;PMS_P1;PMS_P2;Temp;Humidity;BMP_temperature;BMP_pressure;BME280_temperature;BME280_humidity;BME280_pressure;Samples;Min_cycle;Max_cycle;Signal;HPM_P1;HPM_P2
2023/01/23 00:01:30;;;;;;;;;80.80;58.80;;;;;;;;5299341;27;8780;-74
2023/01/23 00:04:01;;;;;;;;;54.40;49.00;;;;;;;;5297306;27;8760;-74
2023/01/23 00:06:32;;;;;;;;;58.60;51.60;;;;;;;;5313707;27;8791;-74
2023/01/23 00:09:21;;;;;;;;;54.40;46.00;;;;;;;;5316522;27;8774;-74
2023/01/23 00:11:52;;;;;;;;;44.00;42.50;;;;;;;;5313298;27;8760;-75
2023/01/23 00:14:23;;;;;;;;;74.25;57.75;;;;;;;;5332289;27;8772;-73
2023/01/23 00:16:54;;;;;;;;;92.00;70.67;;;;;;;;5331655;27;8790;-74
2023/01/23 00:19:25;;;;;;;;;88.67;65.00;;;;;;;;5331331;27;8772;-74
2023/01/23 00:21:57;;;;;;;;;100.00;75.00;;;;;;;;5313248;27;8803;-76
2023/01/23 00:24:28;;;;;;;;;77.25;61.75;;;;;;;;5313175;27;8776;-75
2023/01/23 00:26:59;;;;;;;;;100.33;73.67;;;;;;;;5313013;27;8916;-75
2023/01/23 00:29:51;;;;;;;;;95.00;75.00;;;;;;;;5298402;27;9199;-75
2023/01/23 00:32:41;;;;;;;;;83.00;66.75;;;;;;;;5313323;27;8802;-75
2023/01/23 00:35:11;;;;;;;;;82.50;67.00;;;;;;;;5295898;27;8904;-75
2023/01/23 00:37:42;;;;;;;;;73.80;57.00;;;;;;;;5313416;27;8772;-75
2023/01/23 00:40:15;;;;;;;;;68.20;53.60;;;;;;;;5312034;27;8806;-74
2023/01/23 00:42:46;;;;;;;;;64.20;55.20;;;;;;;;5313274;27;9482;-74
2023/01/23 00:45:17;;;;;;;;;68.75;53.75;;;;;;;;5295699;27;8768;-74
2023/01/23 00:47:48;;;;;;;;;66.20;54.20;;;;;;;;5295496;27;10933;-74
2023/01/23 00:50:19;;;;;;;;;75.75;57.75;;;;;;;;5295897;27;8990;-74
2023/01/23 00:53:09;;;;;;;;;59.80;50.60;;;;;;;;5316286;27;8822;-73
2023/01/23 00:55:40;;;;;;;;;50.60;42.40;;;;;;;;5278966;27;8844;-75
2023/01/23 00:58:30;;;;;;;;;72.60;55.00;;;;;;;;5331187;27;8767;-74
2023/01/23 01:01:01;;;;;;;;;66.00;54.00;;;;;;;;5313024;27;8865;-74
2023/01/23 01:03:32;;;;;;;;;78.00;62.33;;;;;;;;5295782;27;8772;-75
2023/01/23 01:06:03;;;;;;;;;72.75;60.50;;;;;;;;5294935;27;9479;-75
2023/01/23 01:08:34;;;;;;;;;64.00;51.80;;;;;;;;5331726;27;9487;-75
2023/01/23 01:11:05;;;;;;;;;67.25;57.50;;;;;;;;5295771;27;8803;-74
2023/01/23 01:13:36;;;;;;;;;61.80;51.00;;;;;;;;5331304;27;8748;-74
2023/01/23 01:16:08;;;;;;;;;52.80;47.20;;;;;;;;5312869;27;8779;-74
2023/01/23 01:18:39;;;;;;;;;52.00;47.60;;;;;;;;5312151;27;8883;-74
2023/01/23 01:21:12;;;;;;;;;43.00;39.00;;;;;;;;5312537;27;8788;-74
2023/01/23 01:23:43;;;;;;;;;47.60;45.00;;;;;;;;5295976;27;8752;-74
2023/01/23 01:26:14;;;;;;;;;44.00;35.60;;;;;;;;5312954;27;8801;-75
2023/01/23 01:29:03;;;;;;;;;55.80;45.40;;;;;;;;5331438;27;8772;-75
2023/01/23 01:31:34;;;;;;;;;59.25;48.75;;;;;;;;5312473;27;8860;-75
2023/01/23 01:34:06;;;;;;;;;41.00;40.00;;;;;;;;5295332;27;8772;-75
2023/01/23 01:36:37;;;;;;;;;65.00;52.25;;;;;;;;5295092;27;8816;-75
2023/01/23 01:39:08;;;;;;;;;45.40;42.40;;;;;;;;5312147;27;9324;-75
2023/01/23 01:41:39;;;;;;;;;59.20;51.40;;;;;;;;5330623;27;8879;-75
2023/01/23 01:44:17;;;;;;;;;58.00;49.50;;;;;;;;5294919;27;8756;-75
2023/01/23 01:46:49;;;;;;;;;61.80;52.80;;;;;;;;5312827;27;10111;-75
2023/01/23 01:49:28;;;;;;;;;51.20;47.60;;;;;;;;5312383;27;8779;-76
2023/01/23 01:52:02;;;;;;;;;17.20;15.40;;;;;;;;5279477;27;8779;-75
2023/01/23 01:54:46;;;;;;;;;44.60;43.80;;;;;;;;5334843;27;8760;-75
2023/01/23 01:57:26;;;;;;;;;41.60;36.20;;;;;;;;5299130;27;8756;-75
2023/01/23 02:00:08;;;;;;;;;39.80;39.80;;;;;;;;5335250;27;9517;-75
2023/01/23 02:02:57;;;;;;;;;42.00;40.80;;;;;;;;5317093;27;8788;-74
2023/01/23 02:05:37;;;;;;;;;42.60;40.00;;;;;;;;5281591;27;8796;-76
2023/01/23 02:08:30;;;;;;;;;43.00;42.80;;;;;;;;5301901;27;8769;-75
2023/01/23 02:11:03;;;;;;;;;47.80;46.40;;;;;;;;5316276;27;9494;-75
2023/01/23 02:13:38;;;;;;;;;50.00;45.80;;;;;;;;5315661;27;8789;-76
2023/01/23 02:16:11;;;;;;;;;54.50;46.00;;;;;;;;5315765;27;9621;-75
2023/01/23 02:18:44;;;;;;;;;69.25;56.75;;;;;;;;5334149;27;8764;-76
2023/01/23 02:21:18;;;;;;;;;77.50;63.75;;;;;;;;5298133;27;8799;-76
2023/01/23 02:24:19;;;;;;;;;81.25;61.50;;;;;;;;5334559;27;9585;-75
2023/01/23 02:27:08;;;;;;;;;88.75;67.25;;;;;;;;5316047;27;8803;-76
2023/01/23 02:29:43;;;;;;;;;86.00;66.50;;;;;;;;5316113;27;8799;-75
2023/01/23 02:32:15;;;;;;;;;87.50;70.00;;;;;;;;5298635;27;8799;-76
2023/01/23 02:34:47;;;;;;;;;92.75;68.25;;;;;;;;5298165;27;8788;-75
2023/01/23 02:37:20;;;;;;;;;83.25;66.75;;;;;;;;5315406;27;8869;-75
2023/01/23 02:39:51;;;;;;;;;76.00;62.00;;;;;;;;5315128;27;8780;-75
2023/01/23 02:42:24;;;;;;;;;84.50;64.75;;;;;;;;5298042;27;8769;-75
2023/01/23 02:44:57;;;;;;;;;95.50;75.25;;;;;;;;5315247;27;8803;-75
2023/01/23 02:47:28;;;;;;;;;106.00;77.00;;;;;;;;5298094;27;8780;-75
2023/01/23 02:50:17;;;;;;;;;99.00;77.25;;;;;;;;5315705;27;9798;-75
2023/01/23 02:53:07;;;;;;;;;95.50;76.00;;;;;;;;5300852;27;8877;-75
2023/01/23 02:55:58;;;;;;;;;86.25;70.00;;;;;;;;5318277;27;8783;-73
2023/01/23 03:01:37;;;;;;;;;97.50;74.25;;;;;;;;5288310;28;8911;-70
2023/01/23 03:04:27;;;;;;;;;88.00;69.00;;;;;;;;5330296;27;8915;-70
2023/01/23 03:06:58;;;;;;;;;63.67;53.33;;;;;;;;5333128;27;8937;-70
2023/01/23 03:09:29;;;;;;;;;76.25;63.25;;;;;;;;5314349;27;11409;-70
2023/01/23 03:12:00;;;;;;;;;79.00;64.50;;;;;;;;5315224;27;8777;-70
2023/01/23 03:14:32;;;;;;;;;63.20;54.80;;;;;;;;5280657;27;8895;-68
2023/01/23 03:17:03;;;;;;;;;62.40;53.80;;;;;;;;5314442;27;8765;-73
2023/01/23 03:19:38;;;;;;;;;60.20;51.40;;;;;;;;5297891;27;8774;-73
2023/01/23 03:22:09;;;;;;;;;68.20;55.00;;;;;;;;5314294;27;8803;-72
2023/01/23 03:24:40;;;;;;;;;72.50;59.50;;;;;;;;5280215;27;8783;-71
2023/01/23 03:27:11;;;;;;;;;72.60;57.40;;;;;;;;5314583;27;11369;-72
2023/01/23 03:32:37;;;;;;;;;75.75;63.00;;;;;;;;5314631;27;8756;-72
2023/01/23 03:35:12;;;;;;;;;65.75;47.00;;;;;;;;5314424;27;8748;-73
2023/01/23 03:38:01;;;;;;;;;86.00;64.00;;;;;;;;5299639;27;8740;-73
2023/01/23 03:43:23;;;;;;;;;78.75;64.25;;;;;;;;5314770;27;8757;-73
2023/01/23 03:46:12;;;;;;;;;87.00;70.00;;;;;;;;5299735;27;8756;-73
2023/01/23 03:48:43;;;;;;;;;88.50;70.25;;;;;;;;5314041;27;8832;-73
2023/01/23 03:51:14;;;;;;;;;100.00;79.00;;;;;;;;5279835;27;9573;-74
2023/01/23 03:54:03;;;;;;;;;91.50;69.50;;;;;;;;5316780;27;8748;-68
2023/01/23 03:56:34;;;;;;;;;105.67;79.00;;;;;;;;5297009;27;8791;-69
2023/01/23 03:59:05;;;;;;;;;101.33;77.33;;;;;;;;5295926;27;8850;-69
2023/01/23 04:06:12;;;;;;;;;111.00;93.00;;;;;;;;5332452;27;9195;-69
2023/01/23 04:08:43;;;;;;;;;138.75;115.75;;;;;;;;5296714;27;10080;-69
2023/01/23 04:11:14;;;;;;;;;137.25;116.25;;;;;;;;5296226;27;10764;-69
2023/01/23 04:14:03;;;;;;;;;152.75;129.00;;;;;;;;5313580;27;8837;-69
2023/01/23 04:16:34;;;;;;;;;129.75;107.25;;;;;;;;5295755;27;11025;-70
2023/01/23 04:19:23;;;;;;;;;132.00;112.50;;;;;;;;5316138;27;10636;-70
2023/01/23 04:21:55;;;;;;;;;123.00;98.25;;;;;;;;5296273;27;10694;-69
2023/01/23 04:24:26;;;;;;;;;132.00;107.00;;;;;;;;5279496;27;10440;-69
2023/01/23 04:26:57;;;;;;;;;123.00;106.25;;;;;;;;5279369;27;8856;-68
2023/01/23 04:29:29;;;;;;;;;138.75;103.50;;;;;;;;5313067;27;8916;-69
2023/01/23 04:32:19;;;;;;;;;116.50;92.50;;;;;;;;5331779;27;10158;-67
2023/01/23 04:34:51;;;;;;;;;126.00;101.50;;;;;;;;5313078;27;10031;-68
2023/01/23 04:37:22;;;;;;;;;122.25;101.50;;;;;;;;5295881;27;10308;-69
2023/01/23 04:39:54;;;;;;;;;113.67;92.67;;;;;;;;5296672;27;10139;-70
2023/01/23 04:42:26;;;;;;;;;115.33;78.67;;;;;;;;5296096;27;9328;-68
2023/01/23 04:45:19;;;;;;;;;110.33;88.67;;;;;;;;5297647;27;9675;-68
2023/01/23 04:47:56;;;;;;;;;108.67;92.33;;;;;;;;5296463;27;9394;-68
2023/01/23 04:50:27;;;;;;;;;105.00;80.50;;;;;;;;5313312;27;9637;-69
2023/01/23 04:52:58;;;;;;;;;96.00;72.67;;;;;;;;5313008;27;8788;-68
2023/01/23 04:55:29;;;;;;;;;88.00;67.50;;;;;;;;5295879;27;8812;-69
2023/01/23 04:58:02;;;;;;;;;104.00;85.33;;;;;;;;5295722;27;8798;-68
2023/01/23 05:00:34;;;;;;;;;113.67;86.00;;;;;;;;5312100;27;9130;-69
2023/01/23 05:03:07;;;;;;;;;142.50;107.00;;;;;;;;5295949;27;9692;-68
2023/01/23 05:05:56;;;;;;;;;108.50;88.50;;;;;;;;5320269;27;10248;-67
2023/01/23 05:08:45;;;;;;;;;159.25;130.75;;;;;;;;5321076;27;9868;-68
2023/01/23 05:11:24;;;;;;;;;120.50;93.00;;;;;;;;5319929;27;10715;-69
2023/01/23 05:13:55;;;;;;;;;114.67;94.33;;;;;;;;5312581;27;9878;-68
2023/01/23 05:16:28;;;;;;;;;117.75;102.00;;;;;;;;5277724;27;10463;-68
2023/01/23 05:19:18;;;;;;;;;149.25;124.75;;;;;;;;5297025;27;9968;-68
2023/01/23 05:21:50;;;;;;;;;152.25;121.25;;;;;;;;5283239;27;11218;-68
2023/01/23 05:24:24;;;;;;;;;152.75;121.00;;;;;;;;5256913;27;11102;-68
2023/01/23 05:31:19;;;;;;;;;145.50;123.75;;;;;;;;5313704;27;11541;-68
2023/01/23 05:34:08;;;;;;;;;162.50;131.50;;;;;;;;5295620;27;11480;-69
2023/01/23 05:41:06;;;;;;;;;173.75;147.00;;;;;;;;5291459;28;11552;-70
2023/01/23 05:44:13;;;;;;;;;163.75;140.25;;;;;;;;5279305;28;12258;-69
2023/01/23 05:46:54;;;;;;;;;173.25;143.75;;;;;;;;5241724;28;12218;-70
2023/01/23 05:49:25;;;;;;;;;172.50;132.75;;;;;;;;5273720;28;11512;-69
2023/01/23 05:56:19;;;;;;;;;135.75;94.50;;;;;;;;5291024;28;11485;-67
2023/01/23 05:59:10;;;;;;;;;143.00;123.25;;;;;;;;5272704;28;11829;-68
2023/01/23 06:01:50;;;;;;;;;139.50;121.50;;;;;;;;5241753;28;11854;-69
2023/01/23 06:04:57;;;;;;;;;148.75;130.50;;;;;;;;5235889;28;11659;-69
2023/01/23 06:07:39;;;;;;;;;166.50;127.00;;;;;;;;5254297;28;11058;-68
2023/01/23 06:10:13;;;;;;;;;155.50;118.50;;;;;;;;5273539;28;11499;-68
2023/01/23 06:12:46;;;;;;;;;168.75;122.00;;;;;;;;5256966;28;11479;-69
2023/01/23 06:15:17;;;;;;;;;153.50;132.00;;;;;;;;5273446;28;11045;-70
2023/01/23 06:17:50;;;;;;;;;135.67;105.00;;;;;;;;5273935;28;8815;-70
2023/01/23 06:20:22;;;;;;;;;176.00;132.25;;;;;;;;5273606;28;10497;-69
2023/01/23 06:22:54;;;;;;;;;179.75;143.00;;;;;;;;5273200;28;11045;-69
2023/01/23 06:25:25;;;;;;;;;200.75;151.25;;;;;;;;5256105;28;11001;-68
2023/01/23 06:27:58;;;;;;;;;208.50;167.50;;;;;;;;5256706;28;11504;-68
2023/01/23 06:30:32;;;;;;;;;182.75;146.50;;;;;;;;5273341;28;12164;-68
2023/01/23 06:33:04;;;;;;;;;159.75;132.50;;;;;;;;5272541;28;11581;-68
2023/01/23 06:35:42;;;;;;;;;203.00;157.50;;;;;;;;5257364;28;11457;-68
2023/01/23 06:38:13;;;;;;;;;175.00;139.00;;;;;;;;5271440;28;12193;-68
2023/01/23 06:40:44;;;;;;;;;192.75;160.25;;;;;;;;5273030;28;11473;-67
2023/01/23 06:43:32;;;;;;;;;164.25;124.75;;;;;;;;5272673;28;11511;-69
2023/01/23 06:46:06;;;;;;;;;141.75;129.75;;;;;;;;5255659;28;11501;-69
2023/01/23 06:48:37;;;;;;;;;168.75;144.25;;;;;;;;5272921;28;12155;-69
2023/01/23 06:51:09;;;;;;;;;169.25;132.75;;;;;;;;5255541;28;11548;-69
2023/01/23 06:53:59;;;;;;;;;190.75;148.75;;;;;;;;5258268;28;11468;-69
2023/01/23 06:56:30;;;;;;;;;212.75;158.50;;;;;;;;5272885;28;11484;-68
2023/01/23 06:59:02;;;;;;;;;164.50;107.50;;;;;;;;5255888;28;11530;-68
2023/01/23 07:01:37;;;;;;;;;157.75;128.25;;;;;;;;5255939;28;11489;-69
2023/01/23 07:04:17;;;;;;;;;180.00;149.00;;;;;;;;5258178;28;11084;-68
2023/01/23 07:07:06;;;;;;;;;176.25;145.75;;;;;;;;5290733;28;11408;-69
2023/01/23 07:09:38;;;;;;;;;173.50;138.75;;;;;;;;5272254;28;12202;-67
2023/01/23 07:12:30;;;;;;;;;169.25;139.75;;;;;;;;5271800;28;11261;-68
2023/01/23 07:15:01;;;;;;;;;165.50;134.50;;;;;;;;5271952;28;11241;-69
2023/01/23 07:17:39;;;;;;;;;165.75;146.00;;;;;;;;5239617;28;11335;-69
2023/01/23 07:20:10;;;;;;;;;167.75;131.50;;;;;;;;5271857;28;11102;-69
2023/01/23 07:22:50;;;;;;;;;144.00;121.50;;;;;;;;5255351;28;11080;-69
2023/01/23 07:25:22;;;;;;;;;203.25;166.25;;;;;;;;5271950;28;11210;-67
2023/01/23 07:27:53;;;;;;;;;161.50;135.00;;;;;;;;5272190;28;11423;-68
2023/01/23 07:30:25;;;;;;;;;176.25;146.50;;;;;;;;5271749;28;11033;-68
2023/01/23 07:32:57;;;;;;;;;148.75;116.50;;;;;;;;5271900;28;11493;-69
2023/01/23 07:35:28;;;;;;;;;153.00;118.50;;;;;;;;5238271;28;11076;-68
2023/01/23 07:37:59;;;;;;;;;155.75;128.25;;;;;;;;5271981;28;10630;-67
2023/01/23 07:40:30;;;;;;;;;240.75;177.50;;;;;;;;5271565;28;11570;-68
2023/01/23 07:47:12;;;;;;;;;170.25;151.75;;;;;;;;5289100;28;10983;-69
2023/01/23 07:58:43;;;;;;;;;126.67;102.00;;;;;;;;5289412;28;10534;-67
2023/01/23 08:01:14;;;;;;;;;118.33;99.67;;;;;;;;5271625;28;9672;-69
2023/01/23 08:03:45;;;;;;;;;142.25;118.00;;;;;;;;5271789;28;8758;-69
2023/01/23 08:06:16;;;;;;;;;108.00;86.33;;;;;;;;5305590;27;8805;-69
2023/01/23 08:08:47;;;;;;;;;99.33;74.00;;;;;;;;5292662;27;8921;-68
2023/01/23 08:11:18;;;;;;;;;90.25;70.00;;;;;;;;5310344;27;8821;-69
2023/01/23 08:14:08;;;;;;;;;86.50;71.00;;;;;;;;5295902;27;8782;-70
2023/01/23 08:16:39;;;;;;;;;84.67;68.33;;;;;;;;5290807;27;8779;-69
2023/01/23 08:19:10;;;;;;;;;75.75;64.00;;;;;;;;5291998;27;11511;-69
2023/01/23 08:21:40;;;;;;;;;72.00;58.25;;;;;;;;5292355;27;8842;-69
2023/01/23 08:24:30;;;;;;;;;61.00;53.40;;;;;;;;5310586;27;8762;-68
2023/01/23 08:27:00;;;;;;;;;75.60;60.20;;;;;;;;5310797;27;8786;-68
2023/01/23 08:29:31;;;;;;;;;74.50;60.75;;;;;;;;5275476;27;8786;-68
2023/01/23 08:32:02;;;;;;;;;97.00;79.00;;;;;;;;5274783;27;8778;-68
2023/01/23 08:34:33;;;;;;;;;102.67;81.00;;;;;;;;5310583;27;8790;-70
2023/01/23 08:37:04;;;;;;;;;83.33;65.67;;;;;;;;5291303;27;11443;-69
2023/01/23 08:39:37;;;;;;;;;104.75;80.00;;;;;;;;5292428;27;8850;-69
2023/01/23 08:42:08;;;;;;;;;98.33;75.67;;;;;;;;5291493;27;8810;-69
2023/01/23 08:44:39;;;;;;;;;99.67;80.00;;;;;;;;5291263;27;11503;-69
2023/01/23 08:47:10;;;;;;;;;91.00;70.67;;;;;;;;5309664;27;8822;-67
2023/01/23 08:49:41;;;;;;;;;79.00;63.50;;;;;;;;5310041;27;8801;-68
2023/01/23 08:52:12;;;;;;;;;35.00;21.50;;;;;;;;5309952;27;8778;-68
2023/01/23 08:54:43;;;;;;;;;83.00;69.33;;;;;;;;5291623;27;8790;-69
2023/01/23 08:57:13;;;;;;;;;84.67;66.00;;;;;;;;5274670;27;8774;-69
2023/01/23 08:59:44;;;;;;;;;74.00;61.75;;;;;;;;5291393;27;8778;-68
2023/01/23 09:02:15;;;;;;;;;78.60;64.80;;;;;;;;5291169;27;8830;-69
2023/01/23 09:04:46;;;;;;;;;75.25;63.50;;;;;;;;5273249;27;8806;-68
2023/01/23 09:07:36;;;;;;;;;55.00;48.80;;;;;;;;5293691;27;10740;-69
2023/01/23 09:10:07;;;;;;;;;79.00;57.50;;;;;;;;5309695;27;8778;-68
2023/01/23 09:12:41;;;;;;;;;72.40;58.60;;;;;;;;5291284;27;8816;-68
2023/01/23 09:15:12;;;;;;;;;121.00;97.67;;;;;;;;5291183;27;8793;-68
2023/01/23 09:22:06;;;;;;;;;88.50;68.00;;;;;;;;5308741;27;10042;-68
2023/01/23 09:29:02;;;;;;;;;66.60;56.20;;;;;;;;5309266;27;8706;-67
2023/01/23 09:31:35;;;;;;;;;102.67;78.67;;;;;;;;5309307;27;9440;-67
2023/01/23 09:38:32;;;;;;;;;76.00;61.20;;;;;;;;5309133;27;8703;-68
2023/01/23 09:41:26;;;;;;;;;73.80;60.00;;;;;;;;5308908;27;8806;-68
2023/01/23 09:43:57;;;;;;;;;71.00;59.60;;;;;;;;5309244;27;8755;-68
2023/01/23 09:46:32;;;;;;;;;59.80;51.20;;;;;;;;5290714;27;8743;-68
2023/01/23 09:49:08;;;;;;;;;71.40;57.80;;;;;;;;5309717;27;8842;-67
2023/01/23 09:51:53;;;;;;;;;81.00;65.20;;;;;;;;5274110;27;8805;-69
2023/01/23 09:54:45;;;;;;;;;66.20;56.40;;;;;;;;5309499;27;8755;-69
2023/01/23 09:57:18;;;;;;;;;67.40;55.20;;;;;;;;5291759;27;8759;-68
2023/01/23 09:59:50;;;;;;;;;69.40;57.60;;;;;;;;5308043;27;8771;-69
2023/01/23 10:02:22;;;;;;;;;66.20;57.20;;;;;;;;5309048;27;8816;-69
2023/01/23 10:04:53;;;;;;;;;82.00;66.00;;;;;;;;5273428;27;8798;-68
2023/01/23 10:07:53;;;;;;;;;51.80;48.80;;;;;;;;5309609;27;9455;-68
2023/01/23 10:10:27;;;;;;;;;70.60;55.40;;;;;;;;5271296;27;8836;-68
2023/01/23 10:13:12;;;;;;;;;52.40;46.40;;;;;;;;5292026;27;8773;-69
2023/01/23 10:16:16;;;;;;;;;65.00;51.60;;;;;;;;5312450;27;8754;-68
2023/01/23 10:18:47;;;;;;;;;73.80;61.80;;;;;;;;5313196;27;8759;-69
2023/01/23 10:21:29;;;;;;;;;72.20;57.60;;;;;;;;5312945;27;8794;-69
2023/01/23 10:24:02;;;;;;;;;34.00;29.20;;;;;;;;5294161;27;8770;-69
2023/01/23 10:26:54;;;;;;;;;67.80;54.20;;;;;;;;5312998;27;8838;-68
2023/01/23 10:29:31;;;;;;;;;62.40;54.00;;;;;;;;5293980;27;8797;-70
2023/01/23 10:32:05;;;;;;;;;139.67;111.33;;;;;;;;5294673;27;8775;-69
2023/01/23 10:34:53;;;;;;;;;65.60;54.00;;;;;;;;5311968;27;9101;-69
2023/01/23 10:37:56;;;;;;;;;48.20;41.80;;;;;;;;5312450;27;8770;-70
2023/01/23 10:43:18;;;;;;;;;65.20;51.40;;;;;;;;5312864;27;8789;-70
2023/01/23 10:45:49;;;;;;;;;70.80;57.80;;;;;;;;5276781;27;8770;-69
2023/01/23 10:48:32;;;;;;;;;65.50;53.00;;;;;;;;5293735;27;8774;-70
2023/01/23 10:51:03;;;;;;;;;48.40;43.80;;;;;;;;5312850;27;10733;-70
2023/01/23 10:53:34;;;;;;;;;57.60;49.00;;;;;;;;5312005;27;8838;-69
2023/01/23 10:56:13;;;;;;;;;43.00;39.00;;;;;;;;5293888;27;8766;-69
2023/01/23 10:58:43;;;;;;;;;27.60;26.60;;;;;;;;5294155;27;9541;-69
2023/01/23 11:01:34;;;;;;;;;36.80;36.80;;;;;;;;5312331;27;8878;-69
2023/01/23 11:04:09;;;;;;;;;35.40;33.40;;;;;;;;5293950;27;8766;-70
2023/01/23 11:06:40;;;;;;;;;41.20;39.80;;;;;;;;5293811;27;8818;-70
2023/01/23 11:09:18;;;;;;;;;34.50;31.50;;;;;;;;5312064;27;8759;-69
2023/01/23 11:12:13;;;;;;;;;40.00;38.60;;;;;;;;5312577;27;8786;-71
2023/01/23 11:15:13;;;;;;;;;50.20;44.20;;;;;;;;5320154;27;8770;-68
2023/01/23 11:18:15;;;;;;;;;87.20;66.60;;;;;;;;5303374;27;9424;-68
2023/01/23 11:20:54;;;;;;;;;69.20;59.60;;;;;;;;5285700;27;8790;-70
2023/01/23 11:23:43;;;;;;;;;58.60;51.20;;;;;;;;5297643;27;8774;-70
2023/01/23 11:26:30;;;;;;;;;83.75;64.50;;;;;;;;5292815;27;8778;-69
2023/01/23 11:29:01;;;;;;;;;111.00;85.00;;;;;;;;5293712;27;8794;-69
2023/01/23 11:31:32;;;;;;;;;108.50;72.75;;;;;;;;5275869;27;8790;-67
2023/01/23 11:34:06;;;;;;;;;87.50;66.75;;;;;;;;5292914;27;8959;-69
2023/01/23 11:36:50;;;;;;;;;76.20;57.00;;;;;;;;5292853;27;9102;-69
2023/01/23 11:39:41;;;;;;;;;78.60;63.00;;;;;;;;5311322;27;9508;-68
2023/01/23 11:42:12;;;;;;;;;89.60;68.60;;;;;;;;5311995;27;8985;-69
2023/01/23 11:44:45;;;;;;;;;82.80;63.80;;;;;;;;5276110;27;8793;-70
2023/01/23 11:47:54;;;;;;;;;114.25;87.00;;;;;;;;5310146;27;8774;-69
2023/01/23 11:50:28;;;;;;;;;89.20;66.20;;;;;;;;5309249;27;8778;-68
2023/01/23 11:53:00;;;;;;;;;95.20;68.20;;;;;;;;5275960;27;8766;-69
2023/01/23 11:55:49;;;;;;;;;104.75;72.75;;;;;;;;5311636;27;8750;-69
2023/01/23 11:58:53;;;;;;;;;72.20;55.40;;;;;;;;5278403;27;8758;-69
2023/01/23 12:01:54;;;;;;;;;55.80;50.60;;;;;;;;5276395;27;8810;-69
2023/01/23 12:04:34;;;;;;;;;47.20;40.00;;;;;;;;5255823;27;8847;-69
2023/01/23 12:07:24;;;;;;;;;50.20;44.20;;;;;;;;5278012;27;9547;-69
2023/01/23 12:10:13;;;;;;;;;42.40;40.80;;;;;;;;5275173;27;9515;-69
2023/01/23 12:12:44;;;;;;;;;35.00;28.80;;;;;;;;5292298;27;8783;-71
2023/01/23 12:15:34;;;;;;;;;44.25;44.00;;;;;;;;5318439;27;8961;-69
2023/01/23 12:18:23;;;;;;;;;52.00;45.80;;;;;;;;5314429;27;11434;-69
2023/01/23 12:21:01;;;;;;;;;58.60;50.60;;;;;;;;5296702;27;8930;-69
2023/01/23 12:23:44;;;;;;;;;74.80;63.20;;;;;;;;5296190;27;8756;-69
2023/01/23 12:26:18;;;;;;;;;75.60;60.00;;;;;;;;5296734;27;8782;-69
2023/01/23 12:28:52;;;;;;;;;94.00;70.25;;;;;;;;5279035;27;9459;-68
2023/01/23 12:31:47;;;;;;;;;89.20;67.00;;;;;;;;5313062;27;8768;-68
2023/01/23 12:34:26;;;;;;;;;76.20;60.60;;;;;;;;5296129;27;8776;-69
2023/01/23 12:37:21;;;;;;;;;62.40;50.80;;;;;;;;5297651;27;8895;-68
2023/01/23 12:39:53;;;;;;;;;60.60;51.40;;;;;;;;5296095;27;8779;-68
2023/01/23 12:43:02;;;;;;;;;71.20;57.40;;;;;;;;5313414;27;9454;-68
2023/01/23 12:45:36;;;;;;;;;53.20;47.80;;;;;;;;5278254;27;8772;-68
2023/01/23 12:48:11;;;;;;;;;50.20;45.00;;;;;;;;5278813;27;8783;-70
2023/01/23 12:51:11;;;;;;;;;64.20;55.40;;;;;;;;5331137;27;9664;-69
2023/01/23 12:53:44;;;;;;;;;38.20;37.60;;;;;;;;5308544;27;8849;-69
2023/01/23 12:56:34;;;;;;;;;66.40;52.20;;;;;;;;5312347;27;8833;-69
2023/01/23 12:59:28;;;;;;;;;61.40;53.20;;;;;;;;5312323;27;8768;-69
2023/01/23 13:02:17;;;;;;;;;73.60;59.80;;;;;;;;5311268;27;8930;-69
2023/01/23 13:04:59;;;;;;;;;64.60;48.60;;;;;;;;5292137;27;8809;-70
2023/01/23 13:07:36;;;;;;;;;55.60;47.40;;;;;;;;5308556;27;8767;-68
2023/01/23 13:11:39;;;;;;;;;56.20;50.80;;;;;;;;5308014;27;8759;-68
2023/01/23 13:13:18;;;;;;;;;54.20;49.00;;;;;;;;5309348;27;8779;-68
2023/01/23 13:16:07;;;;;;;;;77.60;60.40;;;;;;;;5291383;27;8783;-68
2023/01/23 13:27:40;;;;;;;;;78.00;61.40;;;;;;;;5309810;27;8821;-67
2023/01/23 13:30:20;;;;;;;;;48.80;38.60;;;;;;;;5308343;27;8803;-67
2023/01/23 13:32:59;;;;;;;;;52.60;46.60;;;;;;;;5291093;27;8779;-67
2023/01/23 13:35:48;;;;;;;;;73.60;62.20;;;;;;;;5309637;27;8775;-67
2023/01/23 13:38:24;;;;;;;;;51.75;46.75;;;;;;;;5309851;27;8775;-67
2023/01/23 13:41:07;;;;;;;;;33.00;32.80;;;;;;;;5308083;27;8807;-68
2023/01/23 13:43:52;;;;;;;;;42.20;41.20;;;;;;;;5309836;27;8786;-68
2023/01/23 13:46:35;;;;;;;;;45.80;43.40;;;;;;;;5308571;27;9488;-67
2023/01/23 13:49:50;;;;;;;;;57.60;49.20;;;;;;;;5294122;27;8771;-68
2023/01/23 14:06:49;;;;;;;;;46.40;43.40;;;;;;;;5333502;27;8756;-68
2023/01/23 14:09:22;;;;;;;;;41.80;39.60;;;;;;;;5298786;27;8760;-69
2023/01/23 14:12:04;;;;;;;;;53.60;47.20;;;;;;;;5315726;27;8832;-67
2023/01/23 14:17:25;;;;;;;;;51.60;47.80;;;;;;;;5334879;27;8756;-68
2023/01/23 14:19:58;;;;;;;;;38.75;34.50;;;;;;;;5298529;27;8784;-68
2023/01/23 14:22:31;;;;;;;;;58.00;48.60;;;;;;;;5315542;27;10702;-68
2023/01/23 14:25:02;;;;;;;;;74.40;61.20;;;;;;;;5315723;27;8815;-69
2023/01/23 14:27:35;;;;;;;;;82.80;67.00;;;;;;;;5315359;27;8840;-69
2023/01/23 14:30:25;;;;;;;;;102.00;75.75;;;;;;;;5315851;27;8760;-68
2023/01/23 14:32:59;;;;;;;;;109.75;78.00;;;;;;;;5298800;27;8785;-68
2023/01/23 14:35:31;;;;;;;;;105.25;72.50;;;;;;;;5298702;27;8764;-69
2023/01/23 14:38:04;;;;;;;;;108.00;87.00;;;;;;;;5298563;27;8804;-67
2023/01/23 14:40:40;;;;;;;;;110.25;92.25;;;;;;;;5297735;27;8816;-68
2023/01/23 14:43:15;;;;;;;;;108.50;78.25;;;;;;;;5298456;27;8811;-68
2023/01/23 14:46:18;;;;;;;;;101.75;81.00;;;;;;;;5316246;27;8787;-68
2023/01/23 14:49:08;;;;;;;;;102.25;78.00;;;;;;;;5318130;27;8756;-69
2023/01/23 14:51:52;;;;;;;;;112.00;87.50;;;;;;;;5297828;27;8764;-68
2023/01/23 14:54:42;;;;;;;;;107.00;79.75;;;;;;;;5317560;27;8780;-68
2023/01/23 14:57:14;;;;;;;;;113.50;84.25;;;;;;;;5298370;27;8772;-69
2023/01/23 15:00:03;;;;;;;;;111.75;80.00;;;;;;;;5316670;27;9427;-69
2023/01/23 15:06:59;;;;;;;;;95.50;71.50;;;;;;;;5333634;27;8772;-68
2023/01/23 15:14:00;;;;;;;;;135.00;102.75;;;;;;;;5290242;28;8792;-68
2023/01/23 15:20:56;;;;;;;;;124.67;101.33;;;;;;;;5297002;27;10177;-67
2023/01/23 15:23:30;;;;;;;;;114.00;96.00;;;;;;;;5311155;27;9216;-69
2023/01/23 15:26:11;;;;;;;;;119.67;98.67;;;;;;;;5293657;27;8960;-68
2023/01/23 15:29:00;;;;;;;;;117.00;93.67;;;;;;;;5271752;28;8877;-69
2023/01/23 15:31:32;;;;;;;;;113.25;91.25;;;;;;;;5273039;27;9465;-69
2023/01/23 15:34:13;;;;;;;;;116.00;93.25;;;;;;;;5276136;27;8909;-69
2023/01/23 15:37:05;;;;;;;;;103.25;77.50;;;;;;;;5310740;27;8913;-68
2023/01/23 15:39:39;;;;;;;;;141.67;113.67;;;;;;;;5275929;27;8774;-68
2023/01/23 15:42:10;;;;;;;;;138.50;107.50;;;;;;;;5292580;27;9569;-68
2023/01/23 15:44:42;;;;;;;;;145.75;117.00;;;;;;;;5259045;27;10071;-69
2023/01/23 15:47:13;;;;;;;;;121.33;98.33;;;;;;;;5266070;28;8875;-68
2023/01/23 15:49:44;;;;;;;;;117.33;98.00;;;;;;;;5254932;28;9308;-70
2023/01/23 15:52:20;;;;;;;;;123.00;108.33;;;;;;;;5271175;28;9195;-68
2023/01/23 15:59:15;;;;;;;;;95.50;72.25;;;;;;;;5289852;28;8801;-69
2023/01/23 16:01:46;;;;;;;;;91.75;67.00;;;;;;;;5255303;28;8822;-69
2023/01/23 16:04:17;;;;;;;;;98.75;72.75;;;;;;;;5270865;28;8777;-70
2023/01/23 16:06:48;;;;;;;;;104.00;76.50;;;;;;;;5254009;28;8820;-69
2023/01/23 16:09:26;;;;;;;;;104.50;76.25;;;;;;;;5254266;28;9441;-69
2023/01/23 16:16:21;;;;;;;;;101.00;75.75;;;;;;;;5288966;28;9410;-70
2023/01/23 16:18:52;;;;;;;;;93.00;72.50;;;;;;;;5289466;28;8782;-69
2023/01/23 16:21:45;;;;;;;;;89.25;67.00;;;;;;;;5286162;27;10526;-68
2023/01/23 16:28:39;;;;;;;;;67.80;56.60;;;;;;;;5288859;28;8670;-69
2023/01/23 16:31:28;;;;;;;;;78.00;59.60;;;;;;;;5270925;28;8829;-68
2023/01/23 16:33:59;;;;;;;;;77.00;60.75;;;;;;;;5289265;28;8762;-70
2023/01/23 16:36:30;;;;;;;;;76.60;64.80;;;;;;;;5253376;28;11637;-69
2023/01/23 16:39:22;;;;;;;;;63.80;54.60;;;;;;;;5289049;28;9334;-70
2023/01/23 16:41:53;;;;;;;;;66.00;56.20;;;;;;;;5288035;28;8835;-70
2023/01/23 16:44:27;;;;;;;;;77.50;59.00;;;;;;;;5270934;28;8758;-70
2023/01/23 16:47:17;;;;;;;;;81.75;66.75;;;;;;;;5256732;28;11476;-70
2023/01/23 16:49:47;;;;;;;;;59.40;49.60;;;;;;;;5270309;28;8754;-70
2023/01/23 16:52:19;;;;;;;;;92.33;72.00;;;;;;;;5270817;28;8746;-71
2023/01/23 16:54:51;;;;;;;;;74.20;63.20;;;;;;;;5270284;28;8766;-71
2023/01/23 16:57:22;;;;;;;;;67.60;56.20;;;;;;;;5288338;28;8794;-69
2023/01/23 16:59:55;;;;;;;;;56.60;46.40;;;;;;;;5270910;28;8850;-69
2023/01/23 17:02:28;;;;;;;;;68.40;53.00;;;;;;;;5270233;28;9511;-70
2023/01/23 17:04:59;;;;;;;;;64.20;53.20;;;;;;;;5291174;27;8853;-69
2023/01/23 17:07:30;;;;;;;;;74.00;60.00;;;;;;;;5291242;27;8774;-67